首页
METAR-TAF:

METAR-TAF

机场 :

Orr Regional Airport

Orr, 明尼蘇達州, 美国

纬度: 48-01N, 经度: 092-52W, 海拔: 397米

当前天气观测

该预报发布于40分钟前的20:53 UTC
风速15节,风向西转西北,有时为23节阵风
温度 27°C
湿度 30%
气压 1006 hPa
能見度: 16.1公里
散云层高于8500英尺

METAR: KORB 252053Z AUTO 29015G23KT 10SM SCT085 27/08 A2970 RMK AO2

时间: 16:33 (21:33 UTC)


TAF: 丢失

超过4000个机场的气象观测和天气预报(METAR&TAF报告)。

可查询的气象台以黄色和红色小点在地图上表示。

将鼠标移到小点上方,可查看气象台名称。

然后点击查看天气观测和预报。

如需切换地图:点击带黑十字的绿色按钮放大地图;点击带横线的绿色按钮缩小地图;或者点击绿色箭头查看邻近地区的地图。


METAR-TAF: